AYNZ

Lae Nadzab Airport

Nadzab, Papua New Guinea
METAR AYNZ 172100Z VRB03KT 9999 FEW005 BKN ABV 050 23/21 Q1009 RMK: DISSPATING FG TO WEST
Observed Flight Rules
Jan-17 @ 21:00 UTC (an hour ago) Visual Flight Rules
Wind Visibility Clouds
Variable at 3 knots 10,000+ meters
  • Few at 500' AGL
Temperatures Readings
Current 23°C / 73°F
Dewpoint 21°C / 70°F
Humidity 89%
Altimeter 29.79" Hg
Pressure 1009 hPa
Elevation 70
METAR AYNZ 172100Z VRB03KT 9999 FEW005 BKN ABV 050 23/21 Q1009 RMK: DISSPATING FG TO WEST
Observed Flight Rules
Jan-17 @ 21:00 UTC
(an hour ago)
VFR
Wind Visibility
Variable at 3 knots 10,000+ meters
Clouds
  • Few at 500' AGL
Temperature Dewpoint
23°C / 73°F 21°C / 70°F
Humidity Altimeter Pressure
89% 29.79" Hg 1009 hPa